Historique des stations

Station météo de Saint-Michel-en-Brenne

Altitude de la station : 93 m







Données météorologiques pour le 21/10/2021
Date
Heure
Températures Humidité Point de rosée Vitesse
du vent
Direction Rafales Windchill Pression Pluviométrie
Cumul
Date
Heure
Températures Humidité Point de rosée Vitesse
du vent
Direction Rafales Windchill Pression Pluviométrie
Cumul
21/10/2021 14:2916.7 °C53 %7.2 °C14 km/hSO50 km/h15.6 1017 hPa-
21/10/2021 14:1417.1 °C51 %6.7 °C14 km/hSO50 km/h16.1 1017 hPa-
21/10/2021 13:5916.6 °C54 %7.2 °C8 km/hSSO50 km/h16.7 1018 hPa-
21/10/2021 13:4416.7 °C53 %7.2 °C10 km/hS50 km/h16.7 1018 hPa-
21/10/2021 13:2916.2 °C53 %6.7 °C6 km/hSO50 km/h16.1 1018 hPa-
21/10/2021 13:1416.4 °C53 %6.7 °C11 km/hSO50 km/h16.1 1018 hPa-
21/10/2021 12:5916.5 °C54 %7.2 °C23 km/hOSO50 km/h14.4 1018 hPa-
21/10/2021 12:4416.2 °C55 %7.2 °C13 km/hSO50 km/h15.6 1018 hPa-
21/10/2021 12:2915.8 °C58 %7.2 °C5 km/hS50 km/h15.6 1018 hPa-
21/10/2021 12:1515.6 °C58 %7.2 °C13 km/hSSO50 km/h14.4 1018 hPa-
21/10/2021 12:0015.4 °C59 %7.2 °C21 km/hSSO50 km/h13.3 1018 hPa-
21/10/2021 11:4414.8 °C61 %7.2 °C16 km/hSSO50 km/h13.3 1018 hPa-
21/10/2021 11:2914.8 °C63 %7.8 °C10 km/hS50 km/h14.4 1018 hPa-
21/10/2021 11:1414.3 °C63 %7.2 °C6 km/hSSO50 km/h14.4 1019 hPa-
21/10/2021 10:5913.9 °C64 %7.2 °C11 km/hS50 km/h12.8 1018 hPa-
21/10/2021 10:4413.4 °C65 %6.7 °C5 km/hS50 km/h13.3 1018 hPa-
21/10/2021 10:2912.9 °C66 %6.7 °C8 km/hSSE50 km/h12.2 1018 hPa-
21/10/2021 10:1412.2 °C69 %6.7 °C8 km/hS50 km/h11.7 1018 hPa-
21/10/2021 09:5911.7 °C71 %6.7 °C3 km/hS50 km/h11.7 1018 hPa-
21/10/2021 09:4411.2 °C72 %6.1 °C8 km/hSSO50 km/h10.0 1018 hPa-
21/10/2021 09:2910.9 °C73 %6.1 °C8 km/hS50 km/h10.0 1018 hPa-
21/10/2021 09:1410.6 °C73 %6.1 °C3 km/hS50 km/h10.6 1018 hPa-
21/10/2021 08:5910.4 °C73 %5.6 °C6 km/hS50 km/h10.6 1017 hPa-
21/10/2021 08:4410.3 °C72 %5.6 °C6 km/hS50 km/h10.6 1017 hPa-
21/10/2021 08:2910.4 °C72 %5.6 °C5 km/hS50 km/h10.6 1017 hPa-
21/10/2021 08:1410.6 °C71 %5.6 °C3 km/hS50 km/h10.6 1017 hPa-
21/10/2021 07:5910.7 °C71 %5.6 °C6 km/hSSE50 km/h10.6 1017 hPa-
21/10/2021 07:4411.0 °C70 %5.6 °C3 km/hS50 km/h11.1 1017 hPa-
21/10/2021 07:2911.3 °C70 %6.1 °C8 km/hSO50 km/h10.0 1017 hPa-
21/10/2021 07:1511.5 °C69 %6.1 °C5 km/hS50 km/h11.7 1017 hPa-
21/10/2021 06:5911.8 °C68 %6.1 °C8 km/hS50 km/h11.1 1017 hPa-
21/10/2021 06:4412.1 °C67 %6.1 °C6 km/hSSO50 km/h12.2 1016 hPa-
21/10/2021 06:2912.3 °C67 %6.1 °C11 km/hS50 km/h11.1 1016 hPa-
21/10/2021 06:1412.5 °C66 %6.1 °C10 km/hSSO50 km/h11.7 1016 hPa-
21/10/2021 05:5912.7 °C65 %6.1 °C14 km/hSSO50 km/h11.1 1016 hPa-
21/10/2021 05:4412.6 °C64 %6.1 °C5 km/hS50 km/h12.8 1015 hPa-
21/10/2021 05:2912.7 °C64 %6.1 °C11 km/hS50 km/h11.7 1015 hPa-
21/10/2021 05:1412.7 °C64 %6.1 °C13 km/hS50 km/h11.1 1015 hPa-
21/10/2021 04:5912.8 °C64 %6.1 °C11 km/hSSO50 km/h11.7 1015 hPa-
21/10/2021 04:4412.8 °C64 %6.1 °C16 km/hS50 km/h10.6 1014 hPa-
21/10/2021 04:2912.9 °C64 %6.1 °C8 km/hSSO50 km/h12.2 1014 hPa-
21/10/2021 04:1413.1 °C63 %6.1 °C13 km/hSSO50 km/h11.7 1014 hPa-
21/10/2021 03:5913.3 °C62 %6.1 °C8 km/hSSO50 km/h12.8 1014 hPa-
21/10/2021 03:4413.3 °C62 %6.1 °C16 km/hSO50 km/h11.1 1014 hPa-
21/10/2021 03:2913.6 °C61 %6.1 °C19 km/hO50 km/h10.6 1013 hPa-
21/10/2021 03:1413.9 °C59 %6.1 °C6 km/hSSO50 km/h13.9 1013 hPa-
21/10/2021 02:5914.3 °C58 %6.1 °C14 km/hSSO50 km/h12.8 1012 hPa-
21/10/2021 02:4414.6 °C57 %6.1 °C5 km/hSO50 km/h14.4 1012 hPa-
21/10/2021 02:2914.8 °C55 %5.6 °C31 km/hOSO50 km/h11.1 1012 hPa-
21/10/2021 02:1414.6 °C56 %5.6 °C23 km/hSO50 km/h11.7 1011 hPa-
21/10/2021 01:5914.7 °C54 %5.6 °C21 km/hSSO50 km/h12.8 1011 hPa-
21/10/2021 01:4514.7 °C54 %5.6 °C34 km/hSSO50 km/h11.1 1011 hPa-
21/10/2021 01:3014.6 °C56 %5.6 °C8 km/hSSO50 km/h14.4 1010 hPa-
21/10/2021 01:1514.4 °C57 %6.1 °C13 km/hS45 km/h13.3 1010 hPa-
21/10/2021 00:5914.4 °C58 %6.1 °C23 km/hSSO45 km/h11.7 1010 hPa-
21/10/2021 00:4414.2 °C62 %6.7 °C27 km/hSO45 km/h11.1 1010 hPa-
21/10/2021 00:2914.2 °C64 %7.2 °C23 km/hSSO43 km/h11.7 1010 hPa-
21/10/2021 00:1414.4 °C64 %7.8 °C14 km/hS40 km/h12.8 1009 hPa-


Minima :

Température : 10.3 °C
Humidité : 51 %
Point de rosée : 5.6 °C
Vent moyen : 3 km/h
Windchill : 10.0
Pression atm. : 1009 hPa
Maxima :

Température : 17.1 °C
Humidité : 73 %
Point de rosée : 7.8 °C
Vent moyen : 34 km/h
Windchill : 16.7
Pression atm. : 1019 hPa
Rafales max : 50 km/h
Cumul de pluie sur 24H : 0 mm

Saint-Michel-en-Brenne est une commune du département Indre (36).
La station météorologique du réseau de l'association la plus proche de Saint-Michel-en-Brenne est celle de Villegouin



Icône Facebook Association Météo Centre Icône Twitter Association Météo Centre Icône Chaîne Youtube Association Météo Centre Icône contact Association Météo Centre Icône Insta Association Météo Centre